sensor_id;sensor_type;location;lat;lon;timestamp;pressure;altitude;pressure_sealevel;temperature;humidity
10145;BME280;5113;41.822;23.564;2023-01-28T00:01:49;-10977.75;;;1.57;100.00
10145;BME280;5113;41.822;23.564;2023-01-28T00:04:55;-10974.66;;;1.46;100.00
10145;BME280;5113;41.822;23.564;2023-01-28T00:08:01;-10979.16;;;1.62;100.00
10145;BME280;5113;41.822;23.564;2023-01-28T00:11:11;-10973.41;;;1.41;100.00
10145;BME280;5113;41.822;23.564;2023-01-28T00:14:17;-10977.06;;;1.54;100.00
10145;BME280;5113;41.822;23.564;2023-01-28T00:17:24;-10970.75;;;1.31;100.00
10145;BME280;5113;41.822;23.564;2023-01-28T00:20:30;-10971.72;;;1.35;100.00
10145;BME280;5113;41.822;23.564;2023-01-28T00:23:38;-10969.47;;;1.27;100.00
10145;BME280;5113;41.822;23.564;2023-01-28T00:26:46;-10977.34;;;1.55;100.00
10145;BME280;5113;41.822;23.564;2023-01-28T00:29:52;-10977.34;;;1.55;100.00
10145;BME280;5113;41.822;23.564;2023-01-28T00:32:59;-10966.81;;;1.17;100.00
10145;BME280;5113;41.822;23.564;2023-01-28T00:36:06;-10967.38;;;1.19;100.00
10145;BME280;5113;41.822;23.564;2023-01-28T00:39:13;-10971.03;;;1.32;100.00
10145;BME280;5113;41.822;23.564;2023-01-28T00:42:21;-10977.34;;;1.55;100.00
10145;BME280;5113;41.822;23.564;2023-01-28T00:45:28;-10969.34;;;1.26;100.00
10145;BME280;5113;41.822;23.564;2023-01-28T00:48:35;-10978.88;;;1.61;100.00
10145;BME280;5113;41.822;23.564;2023-01-28T00:51:41;-10979.16;;;1.62;100.00
10145;BME280;5113;41.822;23.564;2023-01-28T00:54:48;-10977.47;;;1.56;100.00
10145;BME280;5113;41.822;23.564;2023-01-28T00:57:55;-10975.22;;;1.48;100.00
10145;BME280;5113;41.822;23.564;2023-01-28T01:01:06;-10971.88;;;1.36;100.00
10145;BME280;5113;41.822;23.564;2023-01-28T01:04:13;-10977.06;;;1.54;100.00
10145;BME280;5113;41.822;23.564;2023-01-28T01:07:30;-10983.63;;;1.78;100.00
10145;BME280;5113;41.822;23.564;2023-01-28T01:10:46;-10982.94;;;1.76;100.00
10145;BME280;5113;41.822;23.564;2023-01-28T01:13:54;-10981.69;;;1.71;100.00
10145;BME280;5113;41.822;23.564;2023-01-28T01:17:01;-10975.09;;;1.47;100.00
10145;BME280;5113;41.822;23.564;2023-01-28T01:20:13;-10981.69;;;1.71;100.00
10145;BME280;5113;41.822;23.564;2023-01-28T01:23:19;-10976.34;;;1.52;100.00
10145;BME280;5113;41.822;23.564;2023-01-28T01:26:28;-10979.44;;;1.63;100.00
10145;BME280;5113;41.822;23.564;2023-01-28T01:29:36;-10977.06;;;1.54;100.00
10145;BME280;5113;41.822;23.564;2023-01-28T01:32:43;-10975.78;;;1.50;100.00
10145;BME280;5113;41.822;23.564;2023-01-28T01:35:52;-10981.41;;;1.70;100.00
10145;BME280;5113;41.822;23.564;2023-01-28T01:38:59;-10970.47;;;1.30;100.00
10145;BME280;5113;41.822;23.564;2023-01-28T01:42:07;-10973.28;;;1.41;100.00
10145;BME280;5113;41.822;23.564;2023-01-28T01:45:16;-10967.66;;;1.20;100.00
10145;BME280;5113;41.822;23.564;2023-01-28T01:48:25;-10965.00;;;1.11;100.00
10145;BME280;5113;41.822;23.564;2023-01-28T01:51:36;-10965.97;;;1.14;100.00
10145;BME280;5113;41.822;23.564;2023-01-28T01:54:46;-10977.47;;;1.56;100.00
10145;BME280;5113;41.822;23.564;2023-01-28T01:57:58;-10966.13;;;1.15;100.00
10145;BME280;5113;41.822;23.564;2023-01-28T02:01:06;-10963.75;;;1.06;100.00
10145;BME280;5113;41.822;23.564;2023-01-28T02:04:17;-10971.59;;;1.35;100.00
10145;BME280;5113;41.822;23.564;2023-01-28T02:07:24;-10967.81;;;1.21;100.00
10145;BME280;5113;41.822;23.564;2023-01-28T02:10:30;-10963.47;;;1.05;100.00
10145;BME280;5113;41.822;23.564;2023-01-28T02:13:39;-10963.03;;;1.04;100.00
10145;BME280;5113;41.822;23.564;2023-01-28T02:16:47;-10969.47;;;1.27;100.00
10145;BME280;5113;41.822;23.564;2023-01-28T02:19:57;-10957.00;;;0.82;100.00
10145;BME280;5113;41.822;23.564;2023-01-28T02:26:46;-10960.09;;;0.93;100.00
10145;BME280;5113;41.822;23.564;2023-01-28T02:29:58;-10965.00;;;1.11;100.00
10145;BME280;5113;41.822;23.564;2023-01-28T02:33:11;-10959.25;;;0.90;100.00
10145;BME280;5113;41.822;23.564;2023-01-28T02:36:25;-10957.84;;;0.85;100.00
10145;BME280;5113;41.822;23.564;2023-01-28T02:39:35;-10963.03;;;1.04;100.00
10145;BME280;5113;41.822;23.564;2023-01-28T02:42:43;-10961.78;;;0.99;100.00
10145;BME280;5113;41.822;23.564;2023-01-28T02:45:50;-10954.91;;;0.74;100.00
10145;BME280;5113;41.822;23.564;2023-01-28T02:49:13;-10963.19;;;1.04;100.00
10145;BME280;5113;41.822;23.564;2023-01-28T02:52:29;-10959.53;;;0.91;100.00
10145;BME280;5113;41.822;23.564;2023-01-28T02:55:59;-10952.38;;;0.65;100.00
10145;BME280;5113;41.822;23.564;2023-01-28T02:59:11;-10953.66;;;0.70;100.00
10145;BME280;5113;41.822;23.564;2023-01-28T03:02:41;-10962.06;;;1.00;100.00
10145;BME280;5113;41.822;23.564;2023-01-28T03:05:52;-10954.34;;;0.72;100.00
10145;BME280;5113;41.822;23.564;2023-01-28T03:09:18;-10956.16;;;0.79;100.00
10145;BME280;5113;41.822;23.564;2023-01-28T03:12:28;-10965.41;;;1.12;100.00
10145;BME280;5113;41.822;23.564;2023-01-28T03:15:53;-10954.06;;;0.71;100.00
10145;BME280;5113;41.822;23.564;2023-01-28T03:19:18;-10954.78;;;0.74;100.00
10145;BME280;5113;41.822;23.564;2023-01-28T03:22:45;-10965.97;;;1.14;100.00
10145;BME280;5113;41.822;23.564;2023-01-28T03:26:12;-10965.28;;;1.12;100.00
10145;BME280;5113;41.822;23.564;2023-01-28T03:29:39;-10963.19;;;1.04;100.00
10145;BME280;5113;41.822;23.564;2023-01-28T03:33:05;-10952.53;;;0.65;100.00
10145;BME280;5113;41.822;23.564;2023-01-28T03:36:31;-10962.34;;;1.01;100.00
10145;BME280;5113;41.822;23.564;2023-01-28T03:40:01;-10950.00;;;0.56;100.00
10145;BME280;5113;41.822;23.564;2023-01-28T03:43:08;-10952.81;;;0.66;100.00
10145;BME280;5113;41.822;23.564;2023-01-28T03:46:15;-10958.69;;;0.88;100.00
10145;BME280;5113;41.822;23.564;2023-01-28T03:49:22;-10954.78;;;0.74;100.00
10145;BME280;5113;41.822;23.564;2023-01-28T03:52:31;-10959.25;;;0.90;100.00
10145;BME280;5113;41.822;23.564;2023-01-28T03:55:38;-10951.53;;;0.62;100.00
10145;BME280;5113;41.822;23.564;2023-01-28T03:58:44;-10950.56;;;0.58;100.00
10145;BME280;5113;41.822;23.564;2023-01-28T04:01:57;-10953.38;;;0.69;100.00
10145;BME280;5113;41.822;23.564;2023-01-28T04:05:04;-10948.31;;;0.50;100.00
10145;BME280;5113;41.822;23.564;2023-01-28T04:08:12;-10950.72;;;0.59;100.00
10145;BME280;5113;41.822;23.564;2023-01-28T04:11:18;-10955.63;;;0.77;100.00
10145;BME280;5113;41.822;23.564;2023-01-28T04:14:25;-10946.78;;;0.45;100.00
10145;BME280;5113;41.822;23.564;2023-01-28T04:17:32;-10946.94;;;0.45;100.00
10145;BME280;5113;41.822;23.564;2023-01-28T04:20:39;-10943.56;;;0.33;100.00
10145;BME280;5113;41.822;23.564;2023-01-28T04:23:46;-10954.78;;;0.74;100.00
10145;BME280;5113;41.822;23.564;2023-01-28T04:26:52;-10951.41;;;0.61;100.00
10145;BME280;5113;41.822;23.564;2023-01-28T04:30:01;-10965.16;;;1.11;100.00
10145;BME280;5113;41.822;23.564;2023-01-28T04:33:08;-10947.91;;;0.49;100.00
10145;BME280;5113;41.822;23.564;2023-01-28T04:36:14;-10950.84;;;0.59;100.00
10145;BME280;5113;41.822;23.564;2023-01-28T04:39:21;-10948.59;;;0.51;100.00
10145;BME280;5113;41.822;23.564;2023-01-28T04:42:28;-10942.16;;;0.28;100.00
10145;BME280;5113;41.822;23.564;2023-01-28T04:45:34;-10950.72;;;0.59;100.00
10145;BME280;5113;41.822;23.564;2023-01-28T04:48:41;-10949.44;;;0.54;100.00
10145;BME280;5113;41.822;23.564;2023-01-28T04:51:47;-10954.22;;;0.72;100.00
10145;BME280;5113;41.822;23.564;2023-01-28T04:54:58;-10950.16;;;0.57;100.00
10145;BME280;5113;41.822;23.564;2023-01-28T04:58:05;-10947.50;;;0.47;100.00
10145;BME280;5113;41.822;23.564;2023-01-28T05:01:11;-10953.66;;;0.70;100.00
10145;BME280;5113;41.822;23.564;2023-01-28T05:04:17;-10943.97;;;0.35;100.00
10145;BME280;5113;41.822;23.564;2023-01-28T05:07:24;-10950.56;;;0.58;100.00
10145;BME280;5113;41.822;23.564;2023-01-28T05:10:31;-10943.00;;;0.31;100.00
10145;BME280;5113;41.822;23.564;2023-01-28T05:13:37;-10944.41;;;0.36;100.00
10145;BME280;5113;41.822;23.564;2023-01-28T05:16:43;-10943.44;;;0.32;100.00
10145;BME280;5113;41.822;23.564;2023-01-28T05:19:53;-10942.03;;;0.27;100.00
10145;BME280;5113;41.822;23.564;2023-01-28T05:23:02;-10945.94;;;0.42;100.00
10145;BME280;5113;41.822;23.564;2023-01-28T05:26:09;-10946.94;;;0.45;100.00
10145;BME280;5113;41.822;23.564;2023-01-28T05:29:16;-10939.63;;;0.19;100.00
10145;BME280;5113;41.822;23.564;2023-01-28T05:32:22;-10945.53;;;0.40;100.00
10145;BME280;5113;41.822;23.564;2023-01-28T05:35:28;-10947.63;;;0.48;100.00
10145;BME280;5113;41.822;23.564;2023-01-28T05:38:34;-10943.69;;;0.33;100.00
10145;BME280;5113;41.822;23.564;2023-01-28T05:41:42;-10949.16;;;0.53;100.00
10145;BME280;5113;41.822;23.564;2023-01-28T05:44:48;-10943.84;;;0.34;100.00
10145;BME280;5113;41.822;23.564;2023-01-28T05:47:54;-10943.56;;;0.33;100.00
10145;BME280;5113;41.822;23.564;2023-01-28T05:51:00;-10955.63;;;0.77;100.00
10145;BME280;5113;41.822;23.564;2023-01-28T05:54:09;-10955.63;;;0.77;100.00
10145;BME280;5113;41.822;23.564;2023-01-28T05:57:16;-10953.94;;;0.71;100.00
10145;BME280;5113;41.822;23.564;2023-01-28T06:00:22;-10960.66;;;0.95;100.00
10145;BME280;5113;41.822;23.564;2023-01-28T06:03:31;-10951.69;;;0.62;100.00
10145;BME280;5113;41.822;23.564;2023-01-28T06:06:38;-10949.16;;;0.53;100.00
10145;BME280;5113;41.822;23.564;2023-01-28T06:09:43;-10949.31;;;0.54;100.00
10145;BME280;5113;41.822;23.564;2023-01-28T06:12:51;-10946.22;;;0.43;100.00
10145;BME280;5113;41.822;23.564;2023-01-28T06:15:57;-10950.84;;;0.59;100.00
10145;BME280;5113;41.822;23.564;2023-01-28T06:19:03;-10950.56;;;0.58;100.00
10145;BME280;5113;41.822;23.564;2023-01-28T06:22:09;-10947.22;;;0.46;100.00
10145;BME280;5113;41.822;23.564;2023-01-28T06:25:15;-10945.53;;;0.40;100.00
10145;BME280;5113;41.822;23.564;2023-01-28T06:28:24;-10948.59;;;0.51;100.00
10145;BME280;5113;41.822;23.564;2023-01-28T06:31:31;-10955.06;;;0.75;100.00
10145;BME280;5113;41.822;23.564;2023-01-28T06:34:38;-10953.94;;;0.71;100.00
10145;BME280;5113;41.822;23.564;2023-01-28T06:37:44;-10962.06;;;1.00;100.00
10145;BME280;5113;41.822;23.564;2023-01-28T06:40:50;-10951.41;;;0.61;100.00
10145;BME280;5113;41.822;23.564;2023-01-28T06:43:58;-10953.66;;;0.70;100.00
10145;BME280;5113;41.822;23.564;2023-01-28T06:47:04;-10947.34;;;0.47;100.00
10145;BME280;5113;41.822;23.564;2023-01-28T06:50:11;-10952.25;;;0.64;100.00
10145;BME280;5113;41.822;23.564;2023-01-28T06:53:18;-10957.00;;;0.82;100.00
10145;BME280;5113;41.822;23.564;2023-01-28T06:56:24;-10950.84;;;0.59;100.00
10145;BME280;5113;41.822;23.564;2023-01-28T06:59:31;-10954.91;;;0.74;100.00
10145;BME280;5113;41.822;23.564;2023-01-28T07:02:38;-10951.41;;;0.61;100.00
10145;BME280;5113;41.822;23.564;2023-01-28T07:05:44;-10951.25;;;0.61;100.00
10145;BME280;5113;41.822;23.564;2023-01-28T07:08:50;-10955.47;;;0.76;100.00
10145;BME280;5113;41.822;23.564;2023-01-28T07:11:56;-10953.22;;;0.68;100.00
10145;BME280;5113;41.822;23.564;2023-01-28T07:15:05;-10947.63;;;0.48;100.00
10145;BME280;5113;41.822;23.564;2023-01-28T07:18:13;-10955.88;;;0.78;100.00
10145;BME280;5113;41.822;23.564;2023-01-28T07:21:20;-10948.88;;;0.52;100.00
10145;BME280;5113;41.822;23.564;2023-01-28T07:24:26;-10957.84;;;0.85;100.00
10145;BME280;5113;41.822;23.564;2023-01-28T07:27:32;-10964.03;;;1.07;100.00
10145;BME280;5113;41.822;23.564;2023-01-28T07:30:39;-10968.91;;;1.25;100.00
10145;BME280;5113;41.822;23.564;2023-01-28T07:33:49;-10971.31;;;1.33;100.00
10145;BME280;5113;41.822;23.564;2023-01-28T07:36:55;-10966.25;;;1.15;100.00
10145;BME280;5113;41.822;23.564;2023-01-28T07:40:01;-10958.13;;;0.86;100.00
10145;BME280;5113;41.822;23.564;2023-01-28T07:43:08;-10961.91;;;0.99;100.00
10145;BME280;5113;41.822;23.564;2023-01-28T07:46:16;-10960.09;;;0.93;100.00
10145;BME280;5113;41.822;23.564;2023-01-28T07:49:23;-10965.56;;;1.13;100.00
10145;BME280;5113;41.822;23.564;2023-01-28T07:52:29;-10974.38;;;1.45;100.00
10145;BME280;5113;41.822;23.564;2023-01-28T07:55:36;-10957.72;;;0.84;100.00
10145;BME280;5113;41.822;23.564;2023-01-28T07:58:42;-10964.31;;;1.08;100.00
10145;BME280;5113;41.822;23.564;2023-01-28T08:01:52;-10968.63;;;1.24;100.00
10145;BME280;5113;41.822;23.564;2023-01-28T08:05:01;-10973.41;;;1.41;100.00
10145;BME280;5113;41.822;23.564;2023-01-28T08:08:07;-10983.22;;;1.77;100.00
10145;BME280;5113;41.822;23.564;2023-01-28T08:11:14;-10972.16;;;1.37;100.00
10145;BME280;5113;41.822;23.564;2023-01-28T08:14:20;-10973.81;;;1.43;100.00
10145;BME280;5113;41.822;23.564;2023-01-28T08:17:28;-10971.59;;;1.35;100.00
10145;BME280;5113;41.822;23.564;2023-01-28T08:20:35;-10971.03;;;1.32;100.00
10145;BME280;5113;41.822;23.564;2023-01-28T08:23:41;-10976.78;;;1.53;100.00
10145;BME280;5113;41.822;23.564;2023-01-28T08:26:47;-10971.88;;;1.36;100.00
10145;BME280;5113;41.822;23.564;2023-01-28T08:29:53;-10971.88;;;1.36;100.00
10145;BME280;5113;41.822;23.564;2023-01-28T08:33:01;-10975.50;;;1.49;100.00
10145;BME280;5113;41.822;23.564;2023-01-28T08:36:07;-10972.72;;;1.39;100.00
10145;BME280;5113;41.822;23.564;2023-01-28T08:39:14;-10971.59;;;1.35;100.00
10145;BME280;5113;41.822;23.564;2023-01-28T08:42:20;-10991.22;;;2.06;100.00
10145;BME280;5113;41.822;23.564;2023-01-28T08:45:27;-10993.44;;;2.14;100.00
10145;BME280;5113;41.822;23.564;2023-01-28T08:48:35;-10982.66;;;1.75;100.00
10145;BME280;5113;41.822;23.564;2023-01-28T08:51:42;-10972.44;;;1.38;100.00
10145;BME280;5113;41.822;23.564;2023-01-28T08:54:48;-10978.88;;;1.61;100.00
10145;BME280;5113;41.822;23.564;2023-01-28T08:57:55;-10969.34;;;1.26;100.00
10145;BME280;5113;41.822;23.564;2023-01-28T09:01:03;-10974.38;;;1.45;100.00
10145;BME280;5113;41.822;23.564;2023-01-28T09:04:11;-10980.56;;;1.67;100.00
10145;BME280;5113;41.822;23.564;2023-01-28T09:07:18;-10990.50;;;2.03;100.00
10145;BME280;5113;41.822;23.564;2023-01-28T09:10:24;-10989.09;;;1.98;100.00
10145;BME280;5113;41.822;23.564;2023-01-28T09:13:31;-10995.97;;;2.23;98.96
10145;BME280;5113;41.822;23.564;2023-01-28T09:16:37;-10996.41;;;2.24;99.40
10145;BME280;5113;41.822;23.564;2023-01-28T09:19:45;-11007.19;;;2.63;96.06
10145;BME280;5113;41.822;23.564;2023-01-28T09:22:51;-11009.72;;;2.73;96.45
10145;BME280;5113;41.822;23.564;2023-01-28T09:26:02;-10990.38;;;2.03;96.37
10145;BME280;5113;41.822;23.564;2023-01-28T09:29:09;-11007.63;;;2.65;94.35
10145;BME280;5113;41.822;23.564;2023-01-28T09:32:15;-11007.75;;;2.65;95.63
10145;BME280;5113;41.822;23.564;2023-01-28T09:35:23;-11007.34;;;2.64;94.27
10145;BME280;5113;41.822;23.564;2023-01-28T09:38:30;-11016.72;;;2.98;91.93
10145;BME280;5113;41.822;23.564;2023-01-28T09:41:45;-11023.75;;;3.23;89.65
10145;BME280;5113;41.822;23.564;2023-01-28T09:45:02;-11013.38;;;2.86;90.51
10145;BME280;5113;41.822;23.564;2023-01-28T09:48:14;-11016.31;;;2.96;89.86
10145;BME280;5113;41.822;23.564;2023-01-28T09:51:31;-11040.00;;;3.82;85.01
10145;BME280;5113;41.822;23.564;2023-01-28T09:54:43;-11049.00;;;4.15;83.88
10145;BME280;5113;41.822;23.564;2023-01-28T09:57:51;-11062.47;;;4.63;80.75
10145;BME280;5113;41.822;23.564;2023-01-28T10:01:05;-11043.53;;;3.95;81.35
10145;BME280;5113;41.822;23.564;2023-01-28T10:04:32;-11057.97;;;4.47;77.50
10145;BME280;5113;41.822;23.564;2023-01-28T10:07:46;-11068.06;;;4.84;76.46
10145;BME280;5113;41.822;23.564;2023-01-28T10:11:02;-11049.00;;;4.15;78.13
10145;BME280;5113;41.822;23.564;2023-01-28T10:14:18;-11061.06;;;4.58;79.29
10145;BME280;5113;41.822;23.564;2023-01-28T10:17:30;-11071.72;;;4.97;75.37
10145;BME280;5113;41.822;23.564;2023-01-28T10:20:41;-11047.31;;;4.09;79.58
10145;BME280;5113;41.822;23.564;2023-01-28T10:23:57;-11044.78;;;4.00;81.75
10145;BME280;5113;41.822;23.564;2023-01-28T10:27:10;-11040.56;;;3.84;79.32
10145;BME280;5113;41.822;23.564;2023-01-28T10:30:20;-11043.94;;;3.96;82.25
10145;BME280;5113;41.822;23.564;2023-01-28T10:33:32;-11050.81;;;4.21;80.73
10145;BME280;5113;41.822;23.564;2023-01-28T10:36:41;-11066.94;;;4.80;78.61
10145;BME280;5113;41.822;23.564;2023-01-28T10:39:49;-11058.25;;;4.48;80.66
10145;BME280;5113;41.822;23.564;2023-01-28T10:42:57;-11039.44;;;3.80;84.78
10145;BME280;5113;41.822;23.564;2023-01-28T10:46:06;-11055.88;;;4.40;81.47
10145;BME280;5113;41.822;23.564;2023-01-28T10:49:17;-11073.69;;;5.04;79.46
10145;BME280;5113;41.822;23.564;2023-01-28T10:52:24;-11051.78;;;4.25;81.17
10145;BME280;5113;41.822;23.564;2023-01-28T10:55:43;-11083.50;;;5.40;77.78
10145;BME280;5113;41.822;23.564;2023-01-28T10:58:57;-11064.16;;;4.70;76.75
10145;BME280;5113;41.822;23.564;2023-01-28T11:02:17;-11063.72;;;4.68;77.17
10145;BME280;5113;41.822;23.564;2023-01-28T11:05:27;-11060.06;;;4.55;76.96
10145;BME280;5113;41.822;23.564;2023-01-28T11:08:42;-11063.16;;;4.66;78.46
10145;BME280;5113;41.822;23.564;2023-01-28T11:11:50;-11058.69;;;4.50;76.72
10145;BME280;5113;41.822;23.564;2023-01-28T11:14:58;-11060.22;;;4.55;76.01
10145;BME280;5113;41.822;23.564;2023-01-28T11:18:05;-11060.22;;;4.55;78.96
10145;BME280;5113;41.822;23.564;2023-01-28T11:21:22;-11057.97;;;4.47;79.85
10145;BME280;5113;41.822;23.564;2023-01-28T11:24:32;-11044.09;;;3.97;78.93
10145;BME280;5113;41.822;23.564;2023-01-28T11:27:40;-11057.13;;;4.44;76.05
10145;BME280;5113;41.822;23.564;2023-01-28T11:30:53;-11047.44;;;4.09;77.46
10145;BME280;5113;41.822;23.564;2023-01-28T11:34:04;-11056.56;;;4.42;75.17
10145;BME280;5113;41.822;23.564;2023-01-28T11:37:13;-11047.59;;;4.10;78.46
10145;BME280;5113;41.822;23.564;2023-01-28T11:40:20;-11050.13;;;4.19;74.46
10145;BME280;5113;41.822;23.564;2023-01-28T11:43:30;-11049.41;;;4.16;75.96
10145;BME280;5113;41.822;23.564;2023-01-28T11:46:51;-11063.31;;;4.67;74.44
10145;BME280;5113;41.822;23.564;2023-01-28T11:50:18;-11026.97;;;3.35;78.39
10145;BME280;5113;41.822;23.564;2023-01-28T11:53:46;-11046.88;;;4.07;75.22
10145;BME280;5113;41.822;23.564;2023-01-28T11:57:06;-11053.75;;;4.32;74.36
10145;BME280;5113;41.822;23.564;2023-01-28T12:00:25;-11072.28;;;4.99;71.95
10145;BME280;5113;41.822;23.564;2023-01-28T12:03:54;-11070.31;;;4.92;71.50
10145;BME280;5113;41.822;23.564;2023-01-28T12:07:22;-11068.91;;;4.87;71.59
10145;BME280;5113;41.822;23.564;2023-01-28T12:10:38;-11065.56;;;4.75;75.29
10145;BME280;5113;41.822;23.564;2023-01-28T12:13:54;-11047.31;;;4.09;78.38
10145;BME280;5113;41.822;23.564;2023-01-28T12:17:23;-11073.41;;;5.03;74.05
10145;BME280;5113;41.822;23.564;2023-01-28T12:20:37;-11048.16;;;4.12;76.46
10145;BME280;5113;41.822;23.564;2023-01-28T12:24:01;-11045.34;;;4.02;78.73
10145;BME280;5113;41.822;23.564;2023-01-28T12:27:18;-11040.56;;;3.84;78.30
10145;BME280;5113;41.822;23.564;2023-01-28T12:30:41;-11027.66;;;3.38;81.93
10145;BME280;5113;41.822;23.564;2023-01-28T12:34:05;-11036.38;;;3.69;82.95
10145;BME280;5113;41.822;23.564;2023-01-28T12:37:19;-11017.28;;;3.00;86.37
10145;BME280;5113;41.822;23.564;2023-01-28T12:40:44;-11025.16;;;3.28;87.04
10145;BME280;5113;41.822;23.564;2023-01-28T12:43:56;-11030.06;;;3.46;84.44
10145;BME280;5113;41.822;23.564;2023-01-28T12:47:08;-11028.09;;;3.39;84.93
10145;BME280;5113;41.822;23.564;2023-01-28T12:50:20;-11025.44;;;3.29;86.05
10145;BME280;5113;41.822;23.564;2023-01-28T12:53:34;-11030.91;;;3.49;85.67
10145;BME280;5113;41.822;23.564;2023-01-28T12:56:46;-11035.25;;;3.65;85.42
10145;BME280;5113;41.822;23.564;2023-01-28T13:00:00;-11034.25;;;3.61;86.72
10145;BME280;5113;41.822;23.564;2023-01-28T13:03:13;-11038.75;;;3.78;86.44
10145;BME280;5113;41.822;23.564;2023-01-28T13:06:28;-11053.34;;;4.30;82.94
10145;BME280;5113;41.822;23.564;2023-01-28T13:09:36;-11059.25;;;4.52;82.92
10145;BME280;5113;41.822;23.564;2023-01-28T13:12:48;-11032.16;;;3.54;85.75
10145;BME280;5113;41.822;23.564;2023-01-28T13:15:55;-11045.63;;;4.03;84.84
10145;BME280;5113;41.822;23.564;2023-01-28T13:19:07;-11030.19;;;3.47;87.59
10145;BME280;5113;41.822;23.564;2023-01-28T13:22:28;-11029.63;;;3.45;87.23
10145;BME280;5113;41.822;23.564;2023-01-28T13:25:35;-11040.72;;;3.85;84.90
10145;BME280;5113;41.822;23.564;2023-01-28T13:28:53;-11014.19;;;2.89;90.08
10145;BME280;5113;41.822;23.564;2023-01-28T13:32:29;-11019.66;;;3.09;91.26
10145;BME280;5113;41.822;23.564;2023-01-28T13:35:38;-11010.84;;;2.77;92.80
10145;BME280;5113;41.822;23.564;2023-01-28T13:38:46;-11021.06;;;3.14;91.56
10145;BME280;5113;41.822;23.564;2023-01-28T13:41:53;-11015.03;;;2.92;94.98
10145;BME280;5113;41.822;23.564;2023-01-28T13:45:21;-11012.53;;;2.83;94.90
10145;BME280;5113;41.822;23.564;2023-01-28T13:48:31;-11024.59;;;3.26;93.56
10145;BME280;5113;41.822;23.564;2023-01-28T13:51:39;-11010.84;;;2.77;94.56
10145;BME280;5113;41.822;23.564;2023-01-28T13:54:55;-11027.25;;;3.36;92.27
10145;BME280;5113;41.822;23.564;2023-01-28T14:05:29;-11019.66;;;3.09;92.02
10145;BME280;5113;41.822;23.564;2023-01-28T14:09:04;-11014.47;;;2.90;92.70
10145;BME280;5113;41.822;23.564;2023-01-28T14:16:00;-11023.88;;;3.24;93.20
10145;BME280;5113;41.822;23.564;2023-01-28T14:19:11;-11005.22;;;2.56;94.31
10145;BME280;5113;41.822;23.564;2023-01-28T14:22:19;-11016.03;;;2.95;93.58
10145;BME280;5113;41.822;23.564;2023-01-28T14:25:31;-11004.25;;;2.53;94.21
10145;BME280;5113;41.822;23.564;2023-01-28T14:28:45;-11002.44;;;2.46;94.90
10145;BME280;5113;41.822;23.564;2023-01-28T14:31:54;-11003.25;;;2.49;97.63
10145;BME280;5113;41.822;23.564;2023-01-28T14:35:06;-11002.97;;;2.48;95.96
10145;BME280;5113;41.822;23.564;2023-01-28T14:38:15;-10997.38;;;2.28;97.86
10145;BME280;5113;41.822;23.564;2023-01-28T14:41:25;-11001.31;;;2.42;97.30
10145;BME280;5113;41.822;23.564;2023-01-28T14:44:36;-10991.34;;;2.06;99.89
10145;BME280;5113;41.822;23.564;2023-01-28T14:47:53;-10997.66;;;2.29;100.00
10145;BME280;5113;41.822;23.564;2023-01-28T14:51:26;-10993.88;;;2.15;99.84
10145;BME280;5113;41.822;23.564;2023-01-28T14:54:46;-10996.13;;;2.23;100.00
10145;BME280;5113;41.822;23.564;2023-01-28T14:57:58;-10990.50;;;2.03;100.00
10145;BME280;5113;41.822;23.564;2023-01-28T15:01:19;-10999.06;;;2.34;100.00
10145;BME280;5113;41.822;23.564;2023-01-28T15:04:28;-10993.44;;;2.14;100.00
10145;BME280;5113;41.822;23.564;2023-01-28T15:07:35;-10994.44;;;2.17;100.00
10145;BME280;5113;41.822;23.564;2023-01-28T15:10:41;-10997.94;;;2.30;100.00
10145;BME280;5113;41.822;23.564;2023-01-28T15:13:51;-10991.91;;;2.08;100.00
10145;BME280;5113;41.822;23.564;2023-01-28T15:17:01;-10988.25;;;1.95;100.00
10145;BME280;5113;41.822;23.564;2023-01-28T15:20:15;-10985.03;;;1.83;100.00
10145;BME280;5113;41.822;23.564;2023-01-28T15:23:26;-10986.31;;;1.88;100.00
10145;BME280;5113;41.822;23.564;2023-01-28T15:26:33;-10986.88;;;1.90;100.00
10145;BME280;5113;41.822;23.564;2023-01-28T15:29:39;-10995.13;;;2.20;100.00
10145;BME280;5113;41.822;23.564;2023-01-28T15:32:56;-10989.53;;;1.99;100.00
10145;BME280;5113;41.822;23.564;2023-01-28T15:36:02;-10998.50;;;2.32;100.00
10145;BME280;5113;41.822;23.564;2023-01-28T15:39:13;-10996.53;;;2.25;100.00
10145;BME280;5113;41.822;23.564;2023-01-28T15:42:20;-10996.25;;;2.24;100.00
10145;BME280;5113;41.822;23.564;2023-01-28T15:45:31;-10992.06;;;2.09;100.00
10145;BME280;5113;41.822;23.564;2023-01-28T15:48:42;-10988.53;;;1.96;100.00
10145;BME280;5113;41.822;23.564;2023-01-28T15:51:49;-10995.28;;;2.20;100.00
10145;BME280;5113;41.822;23.564;2023-01-28T15:54:56;-10994.84;;;2.19;100.00
10145;BME280;5113;41.822;23.564;2023-01-28T15:58:16;-10984.47;;;1.81;100.00
10145;BME280;5113;41.822;23.564;2023-01-28T16:01:22;-10988.13;;;1.94;100.00
10145;BME280;5113;41.822;23.564;2023-01-28T16:04:31;-10994.44;;;2.17;100.00
10145;BME280;5113;41.822;23.564;2023-01-28T16:07:43;-10995.84;;;2.22;100.00
10145;BME280;5113;41.822;23.564;2023-01-28T16:10:51;-10991.63;;;2.07;100.00
10145;BME280;5113;41.822;23.564;2023-01-28T16:13:58;-10992.34;;;2.10;100.00
10145;BME280;5113;41.822;23.564;2023-01-28T16:17:04;-10983.63;;;1.78;100.00
10145;BME280;5113;41.822;23.564;2023-01-28T16:20:20;-10996.81;;;2.26;100.00
10145;BME280;5113;41.822;23.564;2023-01-28T16:23:27;-10987.16;;;1.91;100.00
10145;BME280;5113;41.822;23.564;2023-01-28T16:26:34;-10988.13;;;1.94;100.00
10145;BME280;5113;41.822;23.564;2023-01-28T16:29:41;-10988.41;;;1.95;100.00
10145;BME280;5113;41.822;23.564;2023-01-28T16:32:48;-10993.19;;;2.13;100.00
10145;BME280;5113;41.822;23.564;2023-01-28T16:35:55;-10993.59;;;2.14;100.00
10145;BME280;5113;41.822;23.564;2023-01-28T16:39:12;-10997.66;;;2.29;100.00
10145;BME280;5113;41.822;23.564;2023-01-28T16:42:18;-10993.44;;;2.14;100.00
10145;BME280;5113;41.822;23.564;2023-01-28T16:45:25;-10996.81;;;2.26;100.00
10145;BME280;5113;41.822;23.564;2023-01-28T16:48:31;-11000.31;;;2.39;98.48
10145;BME280;5113;41.822;23.564;2023-01-28T16:51:40;-10993.44;;;2.14;98.54
10145;BME280;5113;41.822;23.564;2023-01-28T16:54:47;-10999.34;;;2.35;97.04